Terminal Aerodrome Forecast
Issued by NWS

Home | Current Version | Previous Version | Text Only | Print | Product List | Glossary On
Versions: 1 2 3 4 5 6 7 8 9 10 11 12 13 14 15 16 17 18 19 20
000
FTUS41 KPBZ 010040 AAA
TAFLBE
TAF AMD
KLBE 010040Z 0101/0124 23005KT P6SM BKN040
     FM011000 25003KT 5SM BR BKN015
     FM011600 27010KT P6SM BKN035
     FM012000 30010KT P6SM SCT040
      AMD NOT SKED 0102/0111=

USA.gov is the U.S. government's official web portal to all federal, state and local government web resources and services.